Latest Weather Observations for Holmes Reef

IDQ60801

Issued at 7:32 pm EST Monday 23 October 2017 (issued every 30 minutes, with the page automatically refreshed every 10 minutes)

About weather observations | Map of weather stations | Latest weather observations for QLD | Other Formats
Station Details ID: 200732 Name: HOLMES REEF Lat: -16.47 Lon: 147.87 Height: 1.9 m
Data from the previous 72 hours. | See also: Recent months at Holmes Reef
Date/Time
EST
Temp
°C
App
Temp
°C
Dew
Point
°C
Rel
Hum
%
Delta-T
°C
Wind Press
QNH
hPa
Press
MSL
hPa
Rain since
9am
mm
Dir  Spd
km/h
Gust
km/h
Spd
kts
Gust
kts
23/07:30pm 25.6 - - - - ESE 2 6 1 3 1013.1 - -
23/07:15pm 25.5 - - - - ESE 2 6 1 3 1012.9 1012.6 -
23/07:00pm 25.6 - - - - ESE 2 6 1 3 1012.9 - -
23/06:30pm 25.6 - - - - ESE 2 6 1 3 1012.6 - -
23/06:15pm 25.7 - - - - ESE 2 - 1 - - 1012.2 -
23/06:00pm 25.7 - - - - SE 2 6 1 3 1012.3 - -
23/05:30pm 25.8 - - - - SE 2 6 1 3 1011.8 - -
23/05:15pm 25.9 - - - - SE 2 - 1 - - 1011.4 -
23/05:00pm 25.8 - - - - SE 22 24 12 13 1011.5 - -
23/04:30pm 25.9 - - - - SE 22 26 12 14 1011.4 - -
23/04:15pm 25.8 - - - - SE 22 - 12 - - 1011.0 -
23/04:00pm 25.9 - - - - SE 22 24 12 13 1011.3 - -
23/03:30pm 25.8 - - - - SE 22 24 12 13 1011.1 - -
23/03:15pm 25.7 - - - - SE 22 - 12 - - 1010.9 -
23/03:00pm 25.9 - - - - SE 22 26 12 14 1011.2 - -
23/02:30pm 25.7 - - - - SE 24 26 13 14 1011.2 - -
23/02:15pm 25.8 - - - - SE 24 - 13 - - 1010.9 -
23/02:00pm 25.8 - - - - SE 22 28 12 15 1011.2 - -
23/01:30pm 25.6 - - - - SE 22 26 12 14 1011.4 - -
23/01:15pm 25.5 - - - - SE 22 - 12 - - 1011.2 -
23/01:00pm 25.5 - - - - SE 20 24 11 13 1011.6 - -
23/12:30pm 25.7 - - - - SE 19 20 10 11 1012.1 - -
23/12:15pm 25.6 - - - - SE 17 - 9 - - 1012.0 -
23/12:00pm 25.5 - - - - SE 19 20 10 11 1012.4 - -
23/11:30am 25.5 - - - - SE 19 20 10 11 1012.8 - -
23/11:15am 25.6 - - - - SE 19 - 10 - - 1012.6 -
23/11:00am 25.5 - - - - SE 20 24 11 13 1013.0 - -
23/10:30am 25.6 - - - - SE 19 22 10 12 1013.2 - -
23/10:15am 25.6 - - - - SE 19 - 10 - - 1013.0 -
23/10:00am 25.6 - - - - SE 19 20 10 11 1013.3 - -
23/09:30am 25.6 - - - - SE 20 22 11 12 1013.2 - -
23/09:15am 25.7 - - - - SE 20 - 11 - - 1013.0 -
23/09:00am 25.6 - - - - SE 19 22 10 12 1013.2 - -
23/08:30am 25.6 - - - - SE 20 22 11 12 1013.0 - -
23/08:15am 25.6 - - - - SE 20 - 11 - - 1012.7 -
23/08:00am 25.6 - - - - SE 19 20 10 11 1012.9 - -
23/07:30am 25.6 - - - - SE 19 20 10 11 1012.8 - -
23/07:15am 25.8 - - - - SE 19 - 10 - - 1012.3 -
23/07:00am 25.9 - - - - ESE 17 19 9 10 1012.3 - -
23/06:30am 25.3 - - - - ESE 17 20 9 11 1011.9 - -
23/06:15am 25.2 - - - - ESE 19 - 10 - - 1011.5 -
23/06:00am 25.2 - - - - SE 17 19 9 10 1011.4 - -
23/05:30am 25.1 - - - - ESE 17 19 9 10 1011.3 - -
23/05:15am 25.1 - - - - ESE 7 - 4 - - 1010.9 -
23/05:00am 25.1 - - - - E 2 6 1 3 1011.2 - -
23/04:30am 25.1 - - - - E 2 6 1 3 1010.8 - -
23/04:15am 25.1 - - - - E 2 - 1 - - 1010.6 -
23/04:00am 25.0 - - - - CALM 0 6 0 3 1010.7 - -
23/03:30am 25.0 - - - - E 2 6 1 3 1010.2 - -
23/03:15am 25.0 - - - - E 2 - 1 - - 1010.1 -
23/03:00am 25.0 - - - - CALM 0 4 0 2 1010.5 - -
23/02:30am 25.0 - - - - CALM 0 4 0 2 1010.6 - -
23/02:15am 24.9 - - - - CALM 0 - 0 - - 1010.4 -
23/02:00am 24.9 - - - - E 2 6 1 3 1010.7 - -
23/01:30am 24.9 - - - - E 2 6 1 3 1010.6 - -
23/01:15am 24.8 - - - - E 2 - 1 - - 1010.6 -
23/01:00am 24.9 - - - - E 2 6 1 3 1011.0 - -
23/12:30am 24.7 - - - - ESE 2 6 1 3 1011.4 - -
23/12:15am 24.8 - - - - ESE 2 - 1 - - 1011.1 -
23/12:00am 24.7 - - - - ESE 4 6 2 3 1011.4 - -
 
Date/Time
EST
Temp
°C
App
Temp
°C
Dew
Point
°C
Rel
Hum
%
Delta-T
°C
Wind Press
QNH
hPa
Press
MSL
hPa
Rain since
9am
mm
Dir  Spd
km/h
Gust
km/h
Spd
kts
Gust
kts
22/11:30pm 24.7 - - - - ESE 2 6 1 3 1011.6 - -
22/11:15pm 24.6 - - - - ESE 2 - 1 - - 1011.7 -
22/11:00pm 24.7 - - - - ESE 2 4 1 2 1012.1 - -
22/10:30pm 24.6 - - - - ESE 2 4 1 2 1012.2 - -
22/10:15pm 24.6 - - - - ESE 2 - 1 - - 1012.1 -
22/10:00pm 24.6 - - - - SE 2 6 1 3 1012.3 - -
22/09:30pm 24.6 - - - - ESE 2 6 1 3 1012.1 - -
22/09:15pm 24.5 - - - - ESE 4 - 2 - - 1011.7 -
22/09:00pm 24.5 - - - - ESE 2 6 1 3 1011.9 - -
22/08:30pm 24.5 - - - - ESE 2 6 1 3 1011.7 - -
22/08:15pm 24.3 - - - - ESE 2 - 1 - - 1011.2 -
22/08:00pm 24.3 - - - - ESE 2 6 1 3 1011.3 - -
22/07:30pm 24.2 - - - - ESE 2 6 1 3 1011.1 - -
22/07:15pm 24.1 - - - - SE 4 - 2 - - 1010.7 -
22/07:00pm 24.0 - - - - ESE 2 6 1 3 1010.7 - -
22/06:30pm 23.9 - - - - SE 2 6 1 3 1010.6 - -
22/06:15pm 23.7 - - - - SE 2 - 1 - - 1010.3 -
22/06:00pm 23.8 - - - - SE 2 7 1 4 1010.3 - -
22/05:30pm 23.7 - - - - SE 2 6 1 3 1010.0 - -
22/05:15pm 23.6 - - - - CALM 0 - 0 - - 1009.6 -
22/05:00pm 23.6 - - - - CALM 0 4 0 2 1009.7 - -
22/04:30pm 23.3 - - - - CALM 0 6 0 3 1009.4 - -
22/04:15pm 23.2 - - - - CALM 0 - 0 - - 1008.9 -
22/04:00pm 23.1 - - - - CALM 0 4 0 2 1009.4 - -
22/03:30pm 23.0 - - - - CALM 0 4 0 2 1009.5 - -
22/03:15pm 22.9 - - - - CALM 0 - 0 - - 1009.2 -
22/03:00pm 22.9 - - - - CALM 0 4 0 2 1009.6 - -
22/02:30pm 22.4 - - - - E 2 4 1 2 1009.5 - -
22/02:15pm 22.2 - - - - CALM 0 - 0 - - 1009.3 -
22/02:00pm 22.2 - - - - ENE 6 17 3 9 1009.7 - -
22/01:30pm 21.9 - - - - E 11 13 6 7 1010.1 - -
22/01:15pm 22.1 - - - - ESE 11 - 6 - - 1010.0 -
22/01:00pm 22.0 - - - - ESE 13 15 7 8 1010.5 - -
22/12:30pm 22.0 - - - - ESE 13 15 7 8 1010.9 - -
22/12:15pm 21.8 - - - - ESE 11 - 6 - - 1010.9 -
22/12:00pm 21.7 - - - - E 7 9 4 5 1011.6 - -
22/11:30am 21.7 - - - - E 7 9 4 5 1012.3 - -
22/11:15am 21.6 - - - - ENE 9 - 5 - - 1012.1 -
22/11:00am 21.7 - - - - E 13 17 7 9 1012.4 - -
22/10:30am 22.0 - - - - ESE 20 24 11 13 1012.4 - -
22/10:15am 22.1 - - - - ESE 24 - 13 - - 1012.1 -
22/10:00am 22.5 - - - - SE 24 26 13 14 1012.3 - -
22/09:30am 23.1 - - - - ESE 24 26 13 14 1012.3 - -
22/09:15am 23.4 - - - - SE 24 - 13 - - 1011.8 -
22/09:00am 23.1 - - - - ESE 24 26 13 14 1012.0 - -
22/08:30am 22.9 - - - - ESE 24 28 13 15 1011.8 - -
22/08:15am 22.5 - - - - SE 26 - 14 - - 1011.4 -
22/08:00am 22.4 - - - - SE 26 28 14 15 1011.6 - -
22/07:30am 22.0 - - - - SSE 26 28 14 15 1011.5 - -
22/07:15am 21.8 - - - - SSE 24 - 13 - - 1011.2 -
22/07:00am 21.9 - - - - SE 22 26 12 14 1011.3 - -
22/06:30am 21.8 - - - - SSE 20 24 11 13 1010.9 - -
22/06:15am 22.0 - - - - SSE 24 - 13 - - 1010.4 -
22/06:00am 22.4 - - - - SSE 2 6 1 3 1010.6 - -
22/05:30am 24.4 - - - - ESE 2 6 1 3 1010.0 - -
22/05:15am 24.3 - - - - ESE 2 - 1 - - 1009.6 -
22/05:00am 24.3 - - - - E 2 6 1 3 1009.7 - -
22/04:30am 24.4 - - - - E 2 6 1 3 1009.4 - -
22/04:15am 24.5 - - - - E 2 - 1 - - 1009.0 -
22/04:00am 24.2 - - - - ESE 2 6 1 3 1009.3 - -
22/03:30am 23.9 - - - - CALM 0 2 0 1 1009.5 - -
22/03:15am 23.4 - - - - CALM 0 - 0 - - 1009.3 -
22/03:00am 22.8 - - - - ESE 2 6 1 3 1009.7 - -
22/02:30am 23.0 - - - - E 2 6 1 3 1010.0 - -
22/02:15am 23.4 - - - - E 2 - 1 - - 1009.9 -
22/02:00am 23.4 - - - - ESE 2 6 1 3 1010.2 - -
22/01:30am 24.3 - - - - ENE 2 6 1 3 1010.6 - -
22/01:15am 24.3 - - - - ENE 2 - 1 - - 1010.4 -
22/01:00am 24.6 - - - - E 2 6 1 3 1010.8 - -
22/12:30am 24.6 - - - - E 2 6 1 3 1011.1 - -
22/12:15am 24.5 - - - - E 2 - 1 - - 1010.9 -
22/12:00am 24.8 - - - - E 2 6 1 3 1011.3 - -
 
Date/Time
EST
Temp
°C
App
Temp
°C
Dew
Point
°C
Rel
Hum
%
Delta-T
°C
Wind Press
QNH
hPa
Press
MSL
hPa
Rain since
9am
mm
Dir  Spd
km/h
Gust
km/h
Spd
kts
Gust
kts
21/11:30pm 25.2 - - - - E 2 6 1 3 1011.6 - -
21/11:15pm 25.0 - - - - ESE 2 - 1 - - 1011.6 -
21/11:00pm 25.1 - - - - ESE 2 6 1 3 1011.9 - -
21/10:30pm 25.7 - - - - ESE 2 6 1 3 1012.0 - -
21/10:15pm 25.7 - - - - ESE 2 - 1 - - 1011.9 -
21/10:00pm 25.8 - - - - ESE 2 6 1 3 1012.0 - -
21/09:30pm 25.8 - - - - SE 2 6 1 3 1012.0 - -
21/09:15pm 25.9 - - - - SE 2 - 1 - - 1011.7 -
21/09:00pm 25.8 - - - - SE 2 6 1 3 1012.0 - -
21/08:30pm 25.8 - - - - SE 2 6 1 3 1011.9 - -
21/08:15pm 25.8 - - - - SE 2 - 1 - - 1011.5 -
21/08:00pm 25.9 - - - - SE 2 4 1 2 1011.9 - -
21/07:30pm 25.8 - - - - SE 2 6 1 3 1011.6 - -
21/07:15pm 25.8 - - - - SE 2 - 1 - - 1011.2 -
21/07:00pm 25.7 - - - - SE 2 6 1 3 1011.4 - -
21/06:30pm 25.7 - - - - SE 2 6 1 3 1011.2 - -
21/06:15pm 25.7 - - - - SE 2 - 1 - - 1010.7 -
21/06:00pm 25.8 - - - - SE 9 20 5 11 1010.8 - -
21/05:30pm 25.8 - - - - SE 19 20 10 11 1010.5 - -
21/05:15pm 25.9 - - - - SE 17 - 9 - - 1010.1 -
21/05:00pm 25.9 - - - - SE 19 20 10 11 1010.4 - -
21/04:30pm 26.0 - - - - SE 17 19 9 10 1010.2 - -
21/04:15pm 26.0 - - - - SE 15 - 8 - - 1009.9 -
21/04:00pm 26.1 - - - - SE 15 17 8 9 1010.2 - -
21/03:30pm 25.9 - - - - SSE 15 17 8 9 1010.2 - -
21/03:15pm 26.1 - - - - SSE 15 - 8 - - 1010.1 -
21/03:00pm 25.9 - - - - SE 15 17 8 9 1010.5 - -
21/02:30pm 26.2 - - - - SSE 15 17 8 9 1010.7 - -
21/02:15pm 26.5 - - - - SSE 15 - 8 - - 1010.6 -
21/02:00pm 26.5 - - - - SSE 15 17 8 9 1011.0 - -
21/01:30pm 26.5 - - - - SSE 17 19 9 10 1011.5 - -
21/01:15pm 26.5 - - - - SSE 17 - 9 - - 1011.4 -
21/01:00pm 25.9 - - - - SSE 15 17 8 9 1011.9 - -
21/12:30pm 26.0 - - - - SE 15 17 8 9 1012.4 - -
21/12:15pm 25.9 - - - - SE 15 - 8 - - 1012.3 -
21/12:00pm 25.9 - - - - SE 15 17 8 9 1012.8 - -
21/11:30am 25.8 - - - - ESE 17 17 9 9 1013.2 - -
21/11:15am 25.8 - - - - ESE 17 - 9 - - 1012.9 -
21/11:00am 25.8 - - - - ESE 17 19 9 10 1013.4 - -
21/10:30am 25.8 - - - - ESE 17 19 9 10 1013.8 - -
21/10:15am 25.9 - - - - ESE 17 - 9 - - 1013.6 -
21/10:00am 25.9 - - - - ESE 19 20 10 11 1013.9 - -
21/09:30am 25.8 - - - - ESE 20 22 11 12 1013.8 - -
21/09:15am 25.9 - - - - ESE 20 - 11 - - 1013.5 -
21/09:00am 25.7 - - - - ESE 17 22 9 12 1013.7 - -
21/08:30am 25.6 - - - - ESE 20 24 11 13 1013.4 - -
21/08:15am 25.7 - - - - ESE 20 - 11 - - 1013.1 -
21/08:00am 25.4 - - - - ESE 22 26 12 14 1013.4 - -
21/07:30am 25.4 - - - - SE 19 20 10 11 1013.3 - -
21/07:15am 25.4 - - - - SE 22 - 12 - - 1013.0 -
21/07:00am 25.3 - - - - ESE 19 20 10 11 1013.3 - -
21/06:30am 25.4 - - - - SE 20 24 11 13 1013.2 - -
21/06:15am 25.4 - - - - SE 20 - 11 - - 1012.9 -
21/06:00am 25.3 - - - - SE 20 24 11 13 1013.0 - -
21/05:30am 25.4 - - - - SE 24 26 13 14 1012.5 - -
21/05:15am 25.3 - - - - SE 24 - 13 - - 1012.1 -
21/05:00am 25.4 - - - - SE 22 24 12 13 1012.4 - -
21/04:30am 25.4 - - - - SE 22 26 12 14 1012.2 - -
21/04:15am 25.3 - - - - SE 24 - 13 - - 1011.8 -
21/04:00am 25.3 - - - - ESE 24 28 13 15 1012.1 - -
21/03:30am 25.5 - - - - ESE 22 28 12 15 1012.1 - -
21/03:15am 25.4 - - - - ESE 26 - 14 - - 1011.9 -
21/03:00am 25.3 - - - - ESE 28 32 15 17 1012.2 - -
21/02:30am 25.3 - - - - ESE 30 32 16 17 1012.2 - -
21/02:15am 25.3 - - - - ESE 30 - 16 - - 1011.9 -
21/02:00am 25.3 - - - - ESE 32 35 17 19 1012.3 - -
21/01:30am 25.3 - - - - ESE 33 41 18 22 1012.6 - -
21/01:15am 25.4 - - - - SE 33 - 18 - - 1012.5 -
21/01:00am 25.3 - - - - SE 32 35 17 19 1012.8 - -
21/12:30am 25.2 - - - - SE 32 35 17 19 1013.2 - -
21/12:15am 25.3 - - - - SE 33 - 18 - - 1013.1 -
21/12:00am 25.4 - - - - SE 32 35 17 19 1014.0 - -
 
Date/Time
EST
Temp
°C
App
Temp
°C
Dew
Point
°C
Rel
Hum
%
Delta-T
°C
Wind Press
QNH
hPa
Press
MSL
hPa
Rain since
9am
mm
Dir  Spd
km/h
Gust
km/h
Spd
kts
Gust
kts
20/11:30pm 25.5 - - - - SE 33 37 18 20 1014.6 - -
20/11:15pm 25.3 - - - - SE 32 - 17 - - 1014.4 -
20/11:00pm 25.3 - - - - SE 32 35 17 19 1015.0 - -
20/10:30pm 25.2 - - - - SSE 30 35 16 19 1015.3 - -
20/10:15pm 25.3 - - - - SE 28 - 15 - - 1015.1 -
20/10:00pm 25.3 - - - - SE 33 37 18 20 1015.3 - -
20/09:30pm 25.4 - - - - SE 30 35 16 19 1014.9 - -
20/09:15pm 25.0 - - - - SE 32 - 17 - - 1014.6 -
20/09:00pm 25.0 - - - - SE 32 37 17 20 1014.9 - -
20/08:30pm 25.3 - - - - SE 32 35 17 19 1014.5 - -
20/08:15pm 24.8 - - - - SE 28 - 15 - - 1014.0 -
20/08:00pm 24.4 - - - - SE 35 43 19 23 1014.2 - -

Other Formats:

Comma delimited format used in spreadsheet applications
http://www.bom.gov.au/fwo/IDQ60801/IDQ60801.94289.axf

JavaScript Object Notation format (JSON) in row-major order
http://www.bom.gov.au/fwo/IDQ60801/IDQ60801.94289.json